createdAt,value
2018-05-26T00:01:39.656Z,7.37
2018-05-26T00:04:10.879Z,7.37
2018-05-26T00:06:41.078Z,7.90
2018-05-26T00:09:12.983Z,7.37
2018-05-26T00:11:43.392Z,6.83
2018-05-26T00:14:13.823Z,7.87
2018-05-26T00:16:44.777Z,7.50
2018-05-26T00:19:15.265Z,7.73
2018-05-26T00:21:46.583Z,8.47
2018-05-26T00:24:16.962Z,8.17
2018-05-26T00:26:47.820Z,8.03
2018-05-26T00:29:18.068Z,7.73
2018-05-26T00:31:49.123Z,7.77
2018-05-26T00:34:20.392Z,8.27
2018-05-26T00:36:51.087Z,7.33
2018-05-26T00:39:21.895Z,8.37
2018-05-26T00:41:53.850Z,7.73
2018-05-26T00:44:24.021Z,7.83
2018-05-26T00:46:56.233Z,7.00
2018-05-26T00:49:27.497Z,8.27
2018-05-26T00:51:58.955Z,7.90
2018-05-26T00:54:29.786Z,7.30
2018-05-26T00:57:01.425Z,8.40
2018-05-26T00:59:33.301Z,8.53
2018-05-26T01:02:04.901Z,8.00
2018-05-26T01:04:35.854Z,8.43
2018-05-26T01:07:06.743Z,8.07
2018-05-26T01:09:38.643Z,8.47
2018-05-26T01:12:10.359Z,9.07
2018-05-26T01:14:40.896Z,8.80
2018-05-26T01:17:11.478Z,9.03
2018-05-26T01:19:42.558Z,8.83
2018-05-26T01:22:23.875Z,9.13
2018-05-26T01:24:56.278Z,8.73
2018-05-26T01:27:27.879Z,8.47
2018-05-26T01:30:00.496Z,9.30
2018-05-26T01:32:31.751Z,8.77
2018-05-26T01:35:02.058Z,8.50
2018-05-26T01:37:33.956Z,8.13
2018-05-26T01:40:05.558Z,8.73
2018-05-26T01:42:37.366Z,8.30
2018-05-26T01:45:07.693Z,8.47
2018-05-26T01:47:51.846Z,8.73
2018-05-26T01:50:22.494Z,8.90
2018-05-26T01:52:52.694Z,9.13
2018-05-26T01:55:24.146Z,7.67
2018-05-26T01:57:54.830Z,8.27
2018-05-26T02:00:25.203Z,8.97
2018-05-26T02:02:56.513Z,8.50
2018-05-26T02:05:28.505Z,8.90
2018-05-26T02:07:59.084Z,8.73
2018-05-26T02:10:29.672Z,8.70
2018-05-26T02:13:00.187Z,8.87
2018-05-26T02:15:30.330Z,8.90
2018-05-26T02:18:02.336Z,8.77
2018-05-26T02:20:33.434Z,8.80
2018-05-26T02:23:03.945Z,9.13
2018-05-26T02:25:35.880Z,8.67
2018-05-26T02:28:07.307Z,8.03
2018-05-26T02:30:38.052Z,8.47
2018-05-26T02:33:08.692Z,8.97
2018-05-26T02:35:42.852Z,8.30
2018-05-26T02:38:13.512Z,8.80
2018-05-26T02:40:44.084Z,8.63
2018-05-26T02:43:15.080Z,8.63
2018-05-26T02:45:46.394Z,8.67
2018-05-26T02:48:16.596Z,8.20
2018-05-26T02:50:47.726Z,7.57
2018-05-26T02:53:19.451Z,8.37
2018-05-26T02:55:50.333Z,8.83
2018-05-26T02:58:20.570Z,8.20
2018-05-26T03:00:52.413Z,8.03
2018-05-26T03:03:24.208Z,8.20
2018-05-26T03:05:59.540Z,8.90
2018-05-26T03:08:34.635Z,8.03
2018-05-26T03:11:10.260Z,7.97
2018-05-26T03:13:45.949Z,8.57
2018-05-26T03:16:17.665Z,8.10
2018-05-26T03:18:49.212Z,8.03
2018-05-26T03:21:20.043Z,8.43
2018-05-26T03:23:52.158Z,7.80
2018-05-26T03:26:22.465Z,8.57
2018-05-26T03:28:53.926Z,8.60
2018-05-26T03:31:37.757Z,7.70
2018-05-26T03:34:08.506Z,8.23
2018-05-26T03:36:38.702Z,7.90
2018-05-26T03:39:09.385Z,7.47
2018-05-26T03:41:41.060Z,8.47
2018-05-26T03:44:12.945Z,7.20
2018-05-26T03:46:43.755Z,7.77
2018-05-26T03:49:16.037Z,7.87
2018-05-26T03:51:46.292Z,7.70
2018-05-26T03:54:17.394Z,8.60
2018-05-26T03:56:58.221Z,7.87
2018-05-26T03:59:42.289Z,7.67
2018-05-26T04:02:12.767Z,8.47
2018-05-26T04:04:43.250Z,8.13
2018-05-26T04:07:13.637Z,7.77
2018-05-26T04:09:44.177Z,8.17
2018-05-26T04:12:16.107Z,7.83
2018-05-26T04:14:46.317Z,7.40
2018-05-26T04:17:17.196Z,7.47
2018-05-26T04:19:49.160Z,7.30
2018-05-26T04:22:20.569Z,7.13
2018-05-26T04:24:51.654Z,7.27
2018-05-26T04:27:23.192Z,7.83
2018-05-26T04:29:53.489Z,7.47
2018-05-26T04:32:24.045Z,7.67
2018-05-26T04:34:55.390Z,8.00
2018-05-26T04:37:25.676Z,7.60
2018-05-26T04:39:57.962Z,7.73
2018-05-26T04:42:28.856Z,7.57
2018-05-26T04:44:59.275Z,7.57
2018-05-26T04:47:30.767Z,7.57
2018-05-26T04:50:03.186Z,7.10
2018-05-26T04:52:33.623Z,6.87
2018-05-26T04:55:04.863Z,6.27
2018-05-26T04:57:36.020Z,6.33
2018-05-26T05:00:08.622Z,6.00
2018-05-26T05:02:38.950Z,6.67
2018-05-26T05:05:09.227Z,5.93
2018-05-26T05:07:39.900Z,5.67
2018-05-26T05:10:10.137Z,5.87
2018-05-26T05:12:40.714Z,5.63
2018-05-26T05:15:12.371Z,5.87
2018-05-26T05:17:43.828Z,5.33
2018-05-26T05:20:14.905Z,5.70
2018-05-26T05:22:45.076Z,4.73
2018-05-26T05:25:15.790Z,5.60
2018-05-26T05:27:47.852Z,5.47
2018-05-26T05:30:18.347Z,5.73
2018-05-26T05:32:48.978Z,5.47
2018-05-26T05:35:19.502Z,5.97
2018-05-26T05:37:50.866Z,5.60
2018-05-26T05:40:21.518Z,5.37
2018-05-26T05:42:51.770Z,5.37
2018-05-26T05:45:22.756Z,5.50
2018-05-26T05:47:54.559Z,5.70
2018-05-26T05:50:27.933Z,5.70
2018-05-26T05:52:59.375Z,5.50
2018-05-26T05:55:30.521Z,5.93
2018-05-26T05:58:01.377Z,5.50
2018-05-26T06:00:32.793Z,5.90
2018-05-26T06:03:03.426Z,6.27
2018-05-26T06:05:33.673Z,5.60
2018-05-26T06:08:05.590Z,5.30
2018-05-26T06:10:37.541Z,6.27
2018-05-26T06:13:12.415Z,5.87
2018-05-26T06:15:44.610Z,6.30
2018-05-26T06:18:15.069Z,6.40
2018-05-26T06:20:45.430Z,6.07
2018-05-26T06:23:15.592Z,6.40
2018-05-26T06:25:46.501Z,6.43
2018-05-26T06:28:17.201Z,6.10
2018-05-26T06:30:48.347Z,6.13
2018-05-26T06:33:19.838Z,6.17
2018-05-26T06:35:50.363Z,6.63
2018-05-26T06:38:21.367Z,6.60
2018-05-26T06:40:53.239Z,6.57
2018-05-26T06:43:28.911Z,6.63
2018-05-26T06:45:59.957Z,7.10
2018-05-26T06:48:35.986Z,7.40
2018-05-26T06:51:07.303Z,7.27
2018-05-26T06:53:37.836Z,7.87
2018-05-26T06:56:08.687Z,7.63
2018-05-26T06:58:38.970Z,8.13
2018-05-26T07:01:10.283Z,7.50
2018-05-26T07:03:40.533Z,7.70
2018-05-26T07:06:10.937Z,8.27
2018-05-26T07:08:41.724Z,6.77
2018-05-26T07:11:12.573Z,7.40
2018-05-26T07:13:45.061Z,7.30
2018-05-26T07:16:16.241Z,6.83
2018-05-26T07:18:46.927Z,6.63
2018-05-26T07:21:17.657Z,6.67
2018-05-26T07:23:49.732Z,6.83
2018-05-26T07:26:21.949Z,5.83
2018-05-26T07:28:52.601Z,5.83
2018-05-26T07:31:23.831Z,6.13
2018-05-26T07:33:54.157Z,6.00
2018-05-26T07:36:26.090Z,5.70
2018-05-26T07:38:59.836Z,6.07
2018-05-26T07:41:31.387Z,6.00
2018-05-26T07:44:07.973Z,6.57
2018-05-26T07:46:38.690Z,5.33
2018-05-26T07:49:15.186Z,5.20
2018-05-26T07:51:46.879Z,5.00
2018-05-26T07:54:20.031Z,4.87
2018-05-26T07:56:53.224Z,5.70
2018-05-26T07:59:27.721Z,4.83
2018-05-26T08:01:58.040Z,5.00
2018-05-26T08:04:29.581Z,5.20
2018-05-26T08:07:00.179Z,4.37
2018-05-26T08:09:31.322Z,4.70
2018-05-26T08:12:01.837Z,4.87
2018-05-26T08:14:33.705Z,4.23
2018-05-26T08:17:04.417Z,4.63
2018-05-26T08:19:37.623Z,4.50
2018-05-26T08:22:09.311Z,4.63
2018-05-26T08:24:42.035Z,5.20
2018-05-26T08:27:15.889Z,5.03
2018-05-26T08:29:46.794Z,4.77
2018-05-26T08:32:24.229Z,4.57
2018-05-26T08:34:54.915Z,4.80
2018-05-26T08:37:29.096Z,4.43
2018-05-26T08:40:02.442Z,4.53
2018-05-26T08:42:33.534Z,4.83
2018-05-26T08:45:07.551Z,4.63
2018-05-26T08:47:40.771Z,5.23
2018-05-26T08:50:13.959Z,5.13
2018-05-26T08:52:44.544Z,4.53
2018-05-26T08:55:16.251Z,4.90
2018-05-26T08:57:48.709Z,4.57
2018-05-26T09:00:19.240Z,4.73
2018-05-26T09:02:49.852Z,4.50
2018-05-26T09:05:21.001Z,5.27
2018-05-26T09:07:53.333Z,4.40
2018-05-26T09:10:25.034Z,4.70
2018-05-26T09:12:56.144Z,4.43
2018-05-26T09:15:26.702Z,4.90
2018-05-26T09:17:56.976Z,4.50
2018-05-26T09:20:27.409Z,4.43
2018-05-26T09:22:58.362Z,4.67
2018-05-26T09:25:29.648Z,5.27
2018-05-26T09:28:02.163Z,4.67
2018-05-26T09:30:33.212Z,4.80
2018-05-26T09:33:06.192Z,5.07
2018-05-26T09:35:36.550Z,4.13
2018-05-26T09:38:10.229Z,4.27
2018-05-26T09:40:42.086Z,3.93
2018-05-26T09:43:13.524Z,4.20
2018-05-26T09:45:43.947Z,3.93
2018-05-26T09:48:14.887Z,4.70
2018-05-26T09:50:46.455Z,4.03
2018-05-26T09:53:19.750Z,3.80
2018-05-26T09:55:50.618Z,3.90
2018-05-26T09:58:24.206Z,3.90
2018-05-26T10:00:57.849Z,3.87
2018-05-26T10:03:29.323Z,3.77
2018-05-26T10:06:03.601Z,3.97
2018-05-26T10:08:34.476Z,3.90
2018-05-26T10:11:07.009Z,4.20
2018-05-26T10:13:40.589Z,3.77
2018-05-26T10:16:11.821Z,3.70
2018-05-26T10:20:04.591Z,4.00
2018-05-26T10:22:36.311Z,3.60
2018-05-26T10:25:11.933Z,3.90
2018-05-26T10:27:42.957Z,4.27
2018-05-26T10:30:14.238Z,3.67
2018-05-26T10:32:46.927Z,3.90
2018-05-26T10:35:24.608Z,3.80
2018-05-26T10:37:58.143Z,3.63
2018-05-26T10:40:30.065Z,4.17
2018-05-26T10:43:02.458Z,3.93
2018-05-26T10:45:41.582Z,3.60
2018-05-26T10:48:16.484Z,3.80
2018-05-26T10:50:49.838Z,3.37
2018-05-26T10:53:22.686Z,3.37
2018-05-26T10:55:56.413Z,4.30
2018-05-26T10:58:28.487Z,3.60
2018-05-26T11:01:00.598Z,3.57
2018-05-26T11:03:34.661Z,3.90
2018-05-26T11:06:06.699Z,4.00
2018-05-26T11:08:38.773Z,3.50
2018-05-26T11:11:11.665Z,3.87
2018-05-26T11:13:44.730Z,3.60
2018-05-26T11:16:18.471Z,3.83
2018-05-26T11:18:49.828Z,3.30
2018-05-26T11:21:21.904Z,3.57
2018-05-26T11:23:53.736Z,3.67
2018-05-26T11:26:25.700Z,3.80
2018-05-26T11:28:57.238Z,3.50
2018-05-26T11:31:29.181Z,3.23
2018-05-26T11:34:02.121Z,3.83
2018-05-26T11:36:33.329Z,4.10
2018-05-26T11:39:07.357Z,3.57
2018-05-26T11:41:40.103Z,3.83
2018-05-26T11:44:11.024Z,3.40
2018-05-26T11:46:42.335Z,4.40
2018-05-26T11:49:14.844Z,3.70
2018-05-26T11:51:45.260Z,4.03
2018-05-26T11:54:15.782Z,4.13
2018-05-26T11:56:47.482Z,3.93
2018-05-26T11:59:21.810Z,4.00
2018-05-26T12:01:53.857Z,3.83
2018-05-26T12:04:26.181Z,3.27
2018-05-26T12:06:57.823Z,4.00
2018-05-26T12:09:28.746Z,3.73
2018-05-26T12:11:59.518Z,3.70
2018-05-26T12:14:30.009Z,4.07
2018-05-26T12:17:00.458Z,3.77
2018-05-26T12:19:32.552Z,4.50
2018-05-26T12:22:03.118Z,3.87
2018-05-26T12:24:34.385Z,3.80
2018-05-26T12:27:06.052Z,3.60
2018-05-26T12:29:37.447Z,3.80
2018-05-26T12:32:08.763Z,4.03
2018-05-26T12:34:40.891Z,3.90
2018-05-26T12:37:11.308Z,3.67
2018-05-26T12:39:43.849Z,4.30
2018-05-26T12:42:16.542Z,4.63
2018-05-26T12:44:47.340Z,3.23
2018-05-26T12:47:19.370Z,3.60
2018-05-26T12:49:49.976Z,3.83
2018-05-26T12:52:21.068Z,4.17
2018-05-26T12:54:52.278Z,4.00
2018-05-26T12:57:22.607Z,3.90
2018-05-26T12:59:53.789Z,4.00
2018-05-26T13:02:24.962Z,4.00
2018-05-26T13:04:55.783Z,4.10
2018-05-26T13:07:26.528Z,4.20
2018-05-26T13:09:59.051Z,3.97
2018-05-26T13:12:30.429Z,3.70
2018-05-26T13:15:01.987Z,4.10
2018-05-26T13:17:32.784Z,3.90
2018-05-26T13:20:06.355Z,3.80
2018-05-26T13:22:38.215Z,3.70
2018-05-26T13:25:10.861Z,3.90
2018-05-26T13:27:43.047Z,3.67
2018-05-26T13:30:14.724Z,3.43
2018-05-26T13:32:44.921Z,4.00
2018-05-26T13:35:15.323Z,3.70
2018-05-26T13:37:49.247Z,3.73
2018-05-26T13:40:21.590Z,3.73
2018-05-26T13:42:52.728Z,3.70
2018-05-26T13:45:24.109Z,3.67
2018-05-26T13:47:55.850Z,4.20
2018-05-26T13:50:27.508Z,3.53
2018-05-26T13:52:59.380Z,3.57
2018-05-26T13:55:31.689Z,3.73
2018-05-26T13:58:03.384Z,3.77
2018-05-26T14:00:35.145Z,3.63
2018-05-26T14:03:07.061Z,3.20
2018-05-26T14:05:37.534Z,3.20
2018-05-26T14:08:08.000Z,4.10
2018-05-26T14:10:39.197Z,3.83
2018-05-26T14:13:11.342Z,3.80
2018-05-26T14:15:43.185Z,3.93
2018-05-26T14:18:15.175Z,3.83
2018-05-26T14:20:47.611Z,3.27
2018-05-26T14:23:20.004Z,3.90
2018-05-26T14:25:51.959Z,3.90
2018-05-26T14:28:23.548Z,3.57
2018-05-26T14:30:55.241Z,3.37
2018-05-26T14:33:26.855Z,3.33
2018-05-26T14:35:57.486Z,3.50
2018-05-26T14:38:32.698Z,3.27
2018-05-26T14:41:03.362Z,3.73
2018-05-26T14:43:33.845Z,3.37
2018-05-26T14:46:04.974Z,3.77
2018-05-26T14:48:36.697Z,3.80
2018-05-26T14:51:08.392Z,3.83
2018-05-26T14:53:39.894Z,3.53
2018-05-26T14:56:11.335Z,4.00
2018-05-26T14:58:42.664Z,4.00
2018-05-26T15:01:13.195Z,3.70
2018-05-26T15:03:45.255Z,4.00
2018-05-26T15:06:15.890Z,4.33
2018-05-26T15:08:51.146Z,4.40
2018-05-26T15:11:28.235Z,7.97
2018-05-26T15:14:03.148Z,4.10
2018-05-26T15:16:37.096Z,3.87
2018-05-26T15:19:12.245Z,4.33
2018-05-26T15:21:45.777Z,4.30
2018-05-26T15:24:17.379Z,3.90
2018-05-26T15:26:50.021Z,4.37
2018-05-26T15:29:21.975Z,3.90
2018-05-26T15:31:57.094Z,3.97
2018-05-26T15:34:28.006Z,4.03
2018-05-26T15:37:03.315Z,4.10
2018-05-26T15:39:34.323Z,4.33
2018-05-26T15:42:07.027Z,3.70
2018-05-26T15:44:39.141Z,4.00
2018-05-26T15:47:10.707Z,3.80
2018-05-26T15:49:42.682Z,3.87
2018-05-26T15:52:17.218Z,4.40
2018-05-26T15:54:48.660Z,4.03
2018-05-26T15:57:19.409Z,3.93
2018-05-26T15:59:49.860Z,3.90
2018-05-26T16:02:23.036Z,4.20
2018-05-26T16:04:55.541Z,4.00
2018-05-26T16:07:26.256Z,3.73
2018-05-26T16:09:57.171Z,3.50
2018-05-26T16:12:32.707Z,3.87
2018-05-26T16:15:08.098Z,3.70
2018-05-26T16:17:39.623Z,4.20
2018-05-26T16:20:10.060Z,3.90
2018-05-26T16:22:43.641Z,3.60
2018-05-26T16:25:18.863Z,3.90
2018-05-26T16:27:51.224Z,3.50
2018-05-26T16:30:22.990Z,4.37
2018-05-26T16:32:54.415Z,3.33
2018-05-26T16:35:26.130Z,4.97
2018-05-26T16:37:56.794Z,4.07
2018-05-26T16:40:27.365Z,3.97
2018-05-26T16:42:59.962Z,4.00
2018-05-26T16:45:31.266Z,4.50
2018-05-26T16:48:04.069Z,4.33
2018-05-26T16:50:36.669Z,4.50
2018-05-26T16:53:09.145Z,4.10
2018-05-26T16:55:41.350Z,4.03
2018-05-26T16:58:13.939Z,4.47
2018-05-26T17:00:50.368Z,4.50
2018-05-26T17:03:22.134Z,3.77
2018-05-26T17:05:54.400Z,3.87
2018-05-26T17:08:26.433Z,4.07
2018-05-26T17:10:58.109Z,4.67
2018-05-26T17:13:31.711Z,4.20
2018-05-26T17:16:04.392Z,4.03
2018-05-26T17:18:36.700Z,3.90
2018-05-26T17:21:11.199Z,4.20
2018-05-26T17:23:45.111Z,4.20
2018-05-26T17:26:17.565Z,4.40
2018-05-26T17:28:53.539Z,4.13
2018-05-26T17:31:27.517Z,3.97
2018-05-26T17:33:59.440Z,4.60
2018-05-26T17:36:30.915Z,4.53
2018-05-26T17:39:03.962Z,4.70
2018-05-26T17:41:36.469Z,4.57
2018-05-26T17:44:09.750Z,4.50
2018-05-26T17:46:42.581Z,4.23
2018-05-26T17:49:14.684Z,4.10
2018-05-26T17:51:46.708Z,4.07
2018-05-26T17:54:22.588Z,4.20
2018-05-26T17:56:54.135Z,4.23
2018-05-26T17:59:25.651Z,4.50
2018-05-26T18:01:58.339Z,4.17
2018-05-26T18:04:29.048Z,4.60
2018-05-26T18:06:59.736Z,4.40
2018-05-26T18:09:31.338Z,4.53
2018-05-26T18:12:03.048Z,5.40
2018-05-26T18:14:34.526Z,4.20
2018-05-26T18:17:09.642Z,4.60
2018-05-26T18:19:41.200Z,4.73
2018-05-26T18:22:11.977Z,4.90
2018-05-26T18:24:45.568Z,5.03
2018-05-26T18:27:18.688Z,5.43
2018-05-26T18:29:54.186Z,5.40
2018-05-26T18:32:25.430Z,4.63
2018-05-26T18:34:56.023Z,5.03
2018-05-26T18:37:27.138Z,4.43
2018-05-26T18:40:01.250Z,4.50
2018-05-26T18:42:43.400Z,4.90
2018-05-26T18:45:18.061Z,5.03
2018-05-26T18:47:51.213Z,4.73
2018-05-26T18:50:23.587Z,5.00
2018-05-26T18:52:54.305Z,4.67
2018-05-26T18:55:29.042Z,4.40
2018-05-26T18:58:00.858Z,4.97
2018-05-26T19:00:32.558Z,4.93
2018-05-26T19:03:05.223Z,4.80
2018-05-26T19:05:38.416Z,4.57
2018-05-26T19:08:09.021Z,5.47
2018-05-26T19:10:42.406Z,6.23
2018-05-26T19:13:13.209Z,6.07
2018-05-26T19:15:44.063Z,5.93
2018-05-26T19:18:16.591Z,6.10
2018-05-26T19:20:52.027Z,6.30
2018-05-26T19:23:23.949Z,5.97
2018-05-26T19:25:55.815Z,5.50
2018-05-26T19:28:26.298Z,5.67
2018-05-26T19:30:56.681Z,5.73
2018-05-26T19:33:27.475Z,5.33
2018-05-26T19:36:01.309Z,5.77
2018-05-26T19:38:34.559Z,5.37
2018-05-26T19:41:05.728Z,5.70
2018-05-26T19:43:37.262Z,6.30
2018-05-26T19:46:08.826Z,5.43
2018-05-26T19:48:39.551Z,5.73
2018-05-26T19:51:10.703Z,6.07
2018-05-26T19:53:40.978Z,5.33
2018-05-26T19:56:11.968Z,5.53
2018-05-26T19:58:42.404Z,5.63
2018-05-26T20:01:13.618Z,6.30
2018-05-26T20:03:45.032Z,6.50
2018-05-26T20:06:15.781Z,5.60
2018-05-26T20:08:48.130Z,5.77
2018-05-26T20:11:20.180Z,6.17
2018-05-26T20:13:51.594Z,6.53
2018-05-26T20:16:22.254Z,5.50
2018-05-26T20:18:53.279Z,5.90
2018-05-26T20:21:24.760Z,5.80
2018-05-26T20:23:55.894Z,6.33
2018-05-26T20:26:26.261Z,6.53
2018-05-26T20:28:58.796Z,6.50
2018-05-26T20:31:30.274Z,6.00
2018-05-26T20:34:04.761Z,6.27
2018-05-26T20:36:36.546Z,5.83
2018-05-26T20:39:09.212Z,6.43
2018-05-26T20:41:40.812Z,6.17
2018-05-26T20:44:12.174Z,6.23
2018-05-26T20:46:46.081Z,5.73
2018-05-26T20:49:20.736Z,5.90
2018-05-26T20:52:02.148Z,6.17
2018-05-26T20:54:33.855Z,6.10
2018-05-26T20:57:08.395Z,5.97
2018-05-26T20:59:39.965Z,6.57
2018-05-26T21:02:18.926Z,6.37
2018-05-26T21:04:56.397Z,6.17
2018-05-26T21:07:31.149Z,6.20
2018-05-26T21:10:09.172Z,5.97
2018-05-26T21:12:42.330Z,6.20
2018-05-26T21:15:15.618Z,6.40
2018-05-26T21:17:51.113Z,5.90
2018-05-26T21:20:32.167Z,6.30
2018-05-26T21:23:14.258Z,6.07
2018-05-26T21:25:49.150Z,6.57
2018-05-26T21:28:23.001Z,5.83
2018-05-26T21:30:55.652Z,6.30
2018-05-26T21:33:27.788Z,6.07
2018-05-26T21:36:00.605Z,5.70
2018-05-26T21:38:31.998Z,5.83
2018-05-26T21:41:04.475Z,5.53
2018-05-26T21:43:36.303Z,5.97
2018-05-26T21:46:07.764Z,6.07
2018-05-26T21:48:39.341Z,6.87
2018-05-26T21:51:11.979Z,6.33
2018-05-26T21:53:43.511Z,6.57
2018-05-26T21:56:14.671Z,6.73
2018-05-26T21:58:50.000Z,6.40
2018-05-26T22:01:23.158Z,6.53
2018-05-26T22:03:55.374Z,6.33
2018-05-26T22:06:26.844Z,7.53
2018-05-26T22:08:59.724Z,6.80
2018-05-26T22:11:34.878Z,6.30
2018-05-26T22:14:10.735Z,6.50
2018-05-26T22:16:45.629Z,6.30
2018-05-26T22:19:20.383Z,6.37
2018-05-26T22:21:55.825Z,6.23
2018-05-26T22:24:29.793Z,6.63
2018-05-26T22:27:01.805Z,6.63
2018-05-26T22:29:33.595Z,7.33
2018-05-26T22:32:05.475Z,6.77
2018-05-26T22:34:35.842Z,6.20
2018-05-26T22:37:08.384Z,6.33
2018-05-26T22:39:39.024Z,6.00
2018-05-26T22:42:10.497Z,6.50
2018-05-26T22:44:42.254Z,6.80
2018-05-26T22:47:17.478Z,6.50
2018-05-26T22:49:50.521Z,6.77
2018-05-26T22:52:21.831Z,6.70
2018-05-26T22:54:53.619Z,6.53
2018-05-26T22:57:27.487Z,6.63
2018-05-26T22:59:58.213Z,6.63
2018-05-26T23:02:28.668Z,6.87
2018-05-26T23:04:59.767Z,7.37
2018-05-26T23:07:31.517Z,6.87
2018-05-26T23:10:02.961Z,7.03
2018-05-26T23:12:33.703Z,7.00
2018-05-26T23:15:05.314Z,7.20
2018-05-26T23:17:38.077Z,7.40
2018-05-26T23:20:09.870Z,6.97
2018-05-26T23:22:41.513Z,7.20
2018-05-26T23:25:13.824Z,7.30
2018-05-26T23:27:44.183Z,6.50
2018-05-26T23:30:16.860Z,6.53
2018-05-26T23:32:47.226Z,6.53
2018-05-26T23:35:17.740Z,7.03
2018-05-26T23:37:48.909Z,7.37
2018-05-26T23:40:19.293Z,7.30
2018-05-26T23:42:49.508Z,7.30
2018-05-26T23:45:20.571Z,7.40
2018-05-26T23:47:52.821Z,7.10
2018-05-26T23:50:24.187Z,7.47
2018-05-26T23:52:55.056Z,7.10
2018-05-26T23:55:25.772Z,7.63
2018-05-26T23:57:56.888Z,8.10
